KCEC

Jack Mc Namara Field Airport

Crescent City, California, USA
METAR KCEC 161356Z AUTO 34009KT 10SM CLR 09/03 A3029 RMK AO2 SLP258 T00940033
Observed Flight Rules
Dec-16 @ 13:56 UTC (36 minutes ago) Visual Flight Rules
Wind Visibility Clouds
340° at 9 knots 10 miles
  • Clear skies
Temperatures Readings
Current 9°C / 48°F
Dewpoint 3°C / 37°F
Humidity 66%
Altimeter 30.29" Hg
Pressure 1025.8 hPa
Elevation 17
METAR KCEC 161356Z AUTO 34009KT 10SM CLR 09/03 A3029 RMK AO2 SLP258 T00940033
Observed Flight Rules
Dec-16 @ 13:56 UTC
(36 minutes ago)
VFR
Wind Visibility
340° at 9 knots 10 miles
Clouds
  • Clear skies
Temperature Dewpoint
9°C / 48°F 3°C / 37°F
Humidity Altimeter Pressure
66% 30.29" Hg 1025.8 hPa